createdAt,value
2017-03-22T00:00:27.974Z,92.51
2017-03-22T00:01:27.998Z,91.38
2017-03-22T00:02:27.712Z,91.66
2017-03-22T00:03:28.035Z,91.47
2017-03-22T00:04:42.668Z,91.56
2017-03-22T00:05:28.073Z,92.51
2017-03-22T00:06:28.091Z,92.32
2017-03-22T00:07:27.806Z,91.85
2017-03-22T00:08:28.131Z,91.94
2017-03-22T00:09:28.149Z,91.66
2017-03-22T00:10:28.168Z,92.32
2017-03-22T00:11:28.189Z,92.71
2017-03-22T00:12:28.208Z,92.71
2017-03-22T00:13:28.233Z,92.71
2017-03-22T00:14:28.245Z,92.99
2017-03-22T00:15:27.959Z,92.8
2017-03-22T00:16:28.291Z,93.23
2017-03-22T00:18:28.323Z,93.04
2017-03-22T00:19:28.349Z,92.75
2017-03-22T00:20:42.976Z,93.04
2017-03-22T00:21:28.076Z,93.7
2017-03-22T00:22:28.401Z,93.51
2017-03-22T00:23:28.420Z,93.7
2017-03-22T00:24:28.136Z,92.94
2017-03-22T00:25:28.456Z,92.47
2017-03-22T00:26:28.172Z,91.8
2017-03-22T00:27:28.500Z,92.66
2017-03-22T00:28:28.518Z,93.32
2017-03-22T00:29:28.534Z,92.75
2017-03-22T00:30:28.579Z,93.51
2017-03-22T00:31:28.570Z,94.08
2017-03-22T00:32:28.592Z,93.32
2017-03-22T00:33:28.611Z,93.41
2017-03-22T00:34:28.637Z,93.23
2017-03-22T00:35:28.650Z,94.18
2017-03-22T00:36:43.282Z,94.56
2017-03-22T00:37:28.382Z,94.37
2017-03-22T00:38:28.404Z,93.51
2017-03-22T00:39:28.726Z,93.41
2017-03-22T00:40:28.741Z,93.8
2017-03-22T00:41:28.763Z,93.41
2017-03-22T00:42:28.782Z,93.13
2017-03-22T00:43:28.800Z,93.6
2017-03-22T00:44:28.820Z,93.99
2017-03-22T00:45:28.870Z,93.89
2017-03-22T00:46:28.864Z,94.37
2017-03-22T00:47:28.876Z,94.27
2017-03-22T00:48:28.897Z,94.18
2017-03-22T00:49:28.916Z,93.32
2017-03-22T00:50:28.933Z,93.65
2017-03-22T00:51:28.953Z,93.6
2017-03-22T00:52:43.587Z,93.89
2017-03-22T00:53:28.993Z,94.7
2017-03-22T00:54:29.011Z,94.51
2017-03-22T00:55:29.028Z,94.42
2017-03-22T00:56:29.046Z,94.6
2017-03-22T00:57:29.065Z,94.6
2017-03-22T00:58:29.087Z,95.17
2017-03-22T00:59:29.105Z,94.79
2017-03-22T01:00:29.122Z,95.65
2017-03-22T01:01:29.142Z,95.17
2017-03-22T01:02:29.163Z,95.07
2017-03-22T01:04:29.200Z,95.93
2017-03-22T01:05:29.219Z,96.5
2017-03-22T01:06:29.237Z,96.97
2017-03-22T01:07:43.872Z,97.74
2017-03-22T01:08:29.276Z,98.44
2017-03-22T01:09:29.296Z,99.01
2017-03-22T01:10:29.312Z,99.01
2017-03-22T01:11:29.331Z,98.92
2017-03-22T01:12:29.349Z,98.44
2017-03-22T01:13:29.371Z,98.92
2017-03-22T01:14:29.391Z,99.3
2017-03-22T01:15:29.104Z,99.68
2017-03-22T01:16:29.122Z,99.99
2017-03-22T01:17:29.443Z,99.99
2017-03-22T01:18:29.465Z,99.99
2017-03-22T01:19:29.483Z,99.99
2017-03-22T01:20:29.498Z,99.99
2017-03-22T01:21:29.524Z,99.99
2017-03-22T01:22:29.539Z,99.99
2017-03-22T01:23:29.557Z,99.99
2017-03-22T01:24:29.575Z,99.99
2017-03-22T01:25:29.593Z,99.99
2017-03-22T01:26:29.615Z,99.99
2017-03-22T01:27:29.631Z,99.99
2017-03-22T01:28:29.650Z,99.99
2017-03-22T01:29:29.670Z,99.99
2017-03-22T01:30:29.687Z,99.99
2017-03-22T01:31:29.716Z,99.99
2017-03-22T01:32:29.723Z,99.99
2017-03-22T01:35:29.784Z,99.99
2017-03-22T01:36:29.797Z,99.99
2017-03-22T01:37:29.817Z,99.99
2017-03-22T01:38:29.835Z,99.99
2017-03-22T01:39:44.467Z,99.99
2017-03-22T01:40:29.870Z,99.99
2017-03-22T01:41:29.892Z,99.99
2017-03-22T01:42:29.906Z,99.99
2017-03-22T01:43:29.928Z,99.99
2017-03-22T01:44:29.947Z,99.99
2017-03-22T01:45:29.963Z,99.99
2017-03-22T01:46:29.980Z,99.99
2017-03-22T01:47:29.999Z,99.99
2017-03-22T01:48:30.019Z,99.99
2017-03-22T01:49:30.038Z,99.99
2017-03-22T01:50:30.055Z,99.99
2017-03-22T01:51:30.070Z,99.99
2017-03-22T01:52:30.094Z,99.99
2017-03-22T01:53:30.110Z,99.99
2017-03-22T01:54:30.130Z,99.99
2017-03-22T01:55:44.762Z,99.99
2017-03-22T01:56:30.164Z,99.99
2017-03-22T01:57:30.183Z,99.99
2017-03-22T01:58:29.902Z,99.99
2017-03-22T01:59:30.222Z,99.99
2017-03-22T02:00:30.236Z,99.99
2017-03-22T02:01:30.259Z,99.99
2017-03-22T02:02:30.272Z,99.99
2017-03-22T02:03:30.294Z,99.99
2017-03-22T02:04:30.311Z,99.99
2017-03-22T02:05:30.331Z,99.99
2017-03-22T02:06:30.346Z,99.99
2017-03-22T02:07:30.372Z,99.99
2017-03-22T02:08:30.385Z,99.99
2017-03-22T02:09:30.402Z,99.99
2017-03-22T02:10:30.423Z,99.99
2017-03-22T02:11:45.052Z,99.99
2017-03-22T02:12:30.457Z,99.99
2017-03-22T02:13:30.477Z,99.99
2017-03-22T02:14:30.494Z,99.99
2017-03-22T02:15:30.513Z,99.99
2017-03-22T02:16:30.529Z,99.99
2017-03-22T02:17:30.548Z,99.99
2017-03-22T02:18:30.566Z,99.99
2017-03-22T02:19:30.584Z,99.99
2017-03-22T02:20:30.601Z,99.99
2017-03-22T02:21:30.619Z,99.99
2017-03-22T02:22:30.637Z,99.99
2017-03-22T02:23:30.656Z,99.99
2017-03-22T02:24:30.674Z,99.99
2017-03-22T02:25:30.691Z,99.99
2017-03-22T02:26:30.709Z,99.99
2017-03-22T02:27:45.342Z,99.99
2017-03-22T02:28:30.747Z,99.99
2017-03-22T02:29:30.764Z,99.99
2017-03-22T02:30:30.781Z,99.99
2017-03-22T02:31:30.798Z,99.99
2017-03-22T02:32:30.817Z,99.99
2017-03-22T02:33:30.531Z,99.99
2017-03-22T02:34:30.852Z,99.99
2017-03-22T02:35:30.870Z,99.99
2017-03-22T02:36:30.889Z,99.99
2017-03-22T02:38:30.928Z,99.99
2017-03-22T02:39:30.944Z,99.99
2017-03-22T02:40:30.961Z,99.99
2017-03-22T02:41:30.980Z,99.99
2017-03-22T02:42:45.612Z,99.99
2017-03-22T02:43:31.050Z,99.99
2017-03-22T02:44:31.039Z,99.99
2017-03-22T02:45:31.050Z,99.99
2017-03-22T02:46:30.768Z,99.99
2017-03-22T02:47:31.094Z,99.99
2017-03-22T02:48:30.802Z,99.99
2017-03-22T02:49:31.121Z,99.99
2017-03-22T02:50:31.140Z,99.99
2017-03-22T02:51:31.161Z,99.99
2017-03-22T02:52:31.175Z,99.99
2017-03-22T02:54:31.211Z,99.99
2017-03-22T02:56:31.248Z,99.99
2017-03-22T02:57:31.265Z,99.99
2017-03-22T02:58:31.285Z,99.99
2017-03-22T02:59:31.300Z,99.99
2017-03-22T03:00:31.353Z,99.99
2017-03-22T03:01:31.336Z,99.99
2017-03-22T03:02:31.354Z,99.99
2017-03-22T03:03:31.373Z,99.99
2017-03-22T03:04:31.390Z,99.99
2017-03-22T03:05:31.407Z,99.99
2017-03-22T03:06:31.426Z,99.99
2017-03-22T03:07:31.445Z,99.99
2017-03-22T03:10:31.195Z,99.99
2017-03-22T03:11:31.515Z,99.99
2017-03-22T03:12:31.533Z,99.99
2017-03-22T03:13:31.552Z,99.99
2017-03-22T03:14:46.183Z,99.99
2017-03-22T03:15:31.589Z,99.99
2017-03-22T03:16:31.605Z,99.99
2017-03-22T03:17:31.661Z,99.99
2017-03-22T03:18:31.642Z,99.99
2017-03-22T03:19:31.659Z,99.99
2017-03-22T03:20:31.675Z,99.99
2017-03-22T03:21:31.728Z,99.99
2017-03-22T03:22:31.406Z,99.99
2017-03-22T03:24:31.746Z,99.99
2017-03-22T03:25:31.764Z,99.99
2017-03-22T03:26:31.783Z,99.99
2017-03-22T03:27:31.802Z,99.99
2017-03-22T03:28:31.819Z,99.99
2017-03-22T03:29:31.533Z,99.99
2017-03-22T03:30:46.469Z,99.99
2017-03-22T03:31:31.872Z,99.99
2017-03-22T03:32:31.888Z,99.99
2017-03-22T03:33:31.909Z,99.99
2017-03-22T03:34:31.925Z,99.99
2017-03-22T03:35:31.946Z,99.99
2017-03-22T03:36:31.959Z,99.99
2017-03-22T03:37:31.978Z,99.87
2017-03-22T03:38:31.998Z,99.58
2017-03-22T03:39:32.013Z,99.77
2017-03-22T03:40:32.031Z,99.96
2017-03-22T03:41:32.053Z,99.58
2017-03-22T03:42:32.066Z,99.49
2017-03-22T03:43:32.087Z,99.3
2017-03-22T03:44:32.103Z,99.39
2017-03-22T03:45:32.121Z,99.77
2017-03-22T03:46:46.753Z,99.3
2017-03-22T03:47:32.196Z,99.11
2017-03-22T03:48:32.180Z,98.54
2017-03-22T03:49:32.192Z,98.63
2017-03-22T03:50:32.209Z,97.97
2017-03-22T03:51:32.379Z,98.16
2017-03-22T03:52:32.245Z,98.16
2017-03-22T03:53:32.266Z,98.92
2017-03-22T03:54:32.281Z,98.54
2017-03-22T03:58:32.355Z,98.63
2017-03-22T03:59:32.373Z,98.73
2017-03-22T04:00:32.388Z,98.63
2017-03-22T04:01:32.101Z,98.92
2017-03-22T04:02:47.040Z,99.11
2017-03-22T04:03:32.442Z,99.2
2017-03-22T04:04:32.462Z,98.82
2017-03-22T04:05:32.478Z,98.63
2017-03-22T04:06:32.493Z,98.54
2017-03-22T04:07:32.514Z,98.68
2017-03-22T04:08:32.532Z,98.49
2017-03-22T04:09:32.549Z,98.39
2017-03-22T04:10:32.576Z,98.49
2017-03-22T04:11:32.583Z,98.16
2017-03-22T04:12:32.609Z,98.21
2017-03-22T04:13:32.621Z,98.16
2017-03-22T04:15:32.658Z,98.21
2017-03-22T04:16:32.673Z,98.16
2017-03-22T04:17:47.313Z,98.44
2017-03-22T04:18:32.713Z,97.88
2017-03-22T04:19:32.728Z,98.07
2017-03-22T04:20:32.756Z,97.92
2017-03-22T04:21:32.765Z,97.59
2017-03-22T04:22:32.780Z,97.97
2017-03-22T04:23:32.838Z,97.69
2017-03-22T04:24:32.817Z,97.97
2017-03-22T04:25:32.833Z,98.54
2017-03-22T04:26:32.546Z,98.54
2017-03-22T04:27:32.869Z,98.63
2017-03-22T04:30:32.923Z,98.58
2017-03-22T04:31:32.939Z,99.44
2017-03-22T04:32:32.958Z,99.99
2017-03-22T04:33:32.978Z,99.99
2017-03-22T04:34:32.995Z,99.99
2017-03-22T04:35:33.010Z,99.99
2017-03-22T04:36:33.028Z,99.99
2017-03-22T04:37:33.045Z,99.99
2017-03-22T04:38:33.066Z,99.99
2017-03-22T04:39:33.080Z,99.99
2017-03-22T04:40:33.107Z,99.99
2017-03-22T04:41:33.118Z,99.99
2017-03-22T04:42:33.132Z,99.99
2017-03-22T04:43:33.158Z,99.99
2017-03-22T04:44:33.170Z,99.99
2017-03-22T04:45:33.224Z,99.99
2017-03-22T04:46:33.207Z,99.99
2017-03-22T04:47:33.225Z,99.99
2017-03-22T04:48:33.241Z,99.99
2017-03-22T04:49:47.873Z,99.99
2017-03-22T04:50:33.275Z,99.99
2017-03-22T04:51:33.293Z,99.99
2017-03-22T04:52:33.309Z,99.99
2017-03-22T04:53:33.331Z,99.99
2017-03-22T04:54:33.351Z,99.99
2017-03-22T04:55:33.362Z,99.99
2017-03-22T04:56:33.381Z,99.99
2017-03-22T04:57:33.398Z,99.99
2017-03-22T04:58:33.422Z,99.99
2017-03-22T04:59:33.432Z,99.99
2017-03-22T05:00:33.448Z,99.99
2017-03-22T05:01:33.465Z,99.99
2017-03-22T05:02:33.485Z,99.99
2017-03-22T05:03:33.503Z,99.99
2017-03-22T05:04:33.518Z,99.99
2017-03-22T05:05:48.151Z,99.99
2017-03-22T05:06:33.553Z,99.99
2017-03-22T05:07:33.571Z,99.99
2017-03-22T05:08:33.591Z,99.99
2017-03-22T05:09:33.605Z,99.99
2017-03-22T05:10:33.627Z,99.99
2017-03-22T05:11:33.638Z,99.99
2017-03-22T05:12:33.656Z,99.99
2017-03-22T05:13:33.675Z,99.99
2017-03-22T05:14:33.992Z,99.99
2017-03-22T05:15:33.411Z,99.99
2017-03-22T05:16:33.726Z,99.99
2017-03-22T05:17:33.745Z,99.99
2017-03-22T05:18:33.762Z,99.99
2017-03-22T05:19:33.778Z,99.99
2017-03-22T05:20:33.799Z,99.99
2017-03-22T05:21:48.428Z,99.99
2017-03-22T05:22:33.831Z,99.99
2017-03-22T05:23:33.850Z,99.99
2017-03-22T05:24:33.868Z,99.99
2017-03-22T05:25:33.880Z,99.99
2017-03-22T05:26:33.901Z,99.99
2017-03-22T05:28:33.937Z,99.99
2017-03-22T05:29:33.953Z,99.99
2017-03-22T05:30:33.968Z,99.99
2017-03-22T05:31:33.985Z,99.99
2017-03-22T05:32:34.004Z,99.99
2017-03-22T05:33:34.021Z,99.99
2017-03-22T05:34:34.047Z,99.99
2017-03-22T05:35:34.054Z,99.99
2017-03-22T05:36:34.073Z,99.99
2017-03-22T05:37:48.706Z,99.99
2017-03-22T05:38:34.107Z,99.99
2017-03-22T05:39:34.126Z,99.99
2017-03-22T05:40:34.143Z,99.99
2017-03-22T05:41:34.169Z,99.99
2017-03-22T05:42:34.178Z,99.99
2017-03-22T05:43:34.195Z,99.99
2017-03-22T05:44:34.211Z,99.99
2017-03-22T05:45:34.230Z,99.99
2017-03-22T05:46:34.248Z,99.99
2017-03-22T05:47:34.265Z,99.99
2017-03-22T05:49:34.307Z,99.99
2017-03-22T05:50:34.318Z,99.99
2017-03-22T05:51:34.339Z,99.99
2017-03-22T05:52:48.969Z,99.99
2017-03-22T05:53:34.068Z,99.99
2017-03-22T05:54:34.083Z,99.99
2017-03-22T05:55:34.405Z,99.99
2017-03-22T05:56:34.422Z,99.99
2017-03-22T05:57:34.442Z,99.99
2017-03-22T05:58:34.466Z,99.99
2017-03-22T05:59:34.475Z,99.99
2017-03-22T06:00:34.190Z,99.99
2017-03-22T06:01:34.509Z,99.99
2017-03-22T06:02:34.529Z,99.99
2017-03-22T06:03:34.549Z,99.99
2017-03-22T06:04:34.566Z,99.99
2017-03-22T06:05:34.583Z,99.99
2017-03-22T06:06:34.598Z,99.99
2017-03-22T06:07:34.623Z,99.99
2017-03-22T06:08:34.638Z,99.99
2017-03-22T06:09:34.351Z,99.99
2017-03-22T06:10:34.676Z,99.99
2017-03-22T06:11:34.695Z,99.99
2017-03-22T06:12:34.706Z,99.99
2017-03-22T06:13:34.728Z,99.99
2017-03-22T06:14:34.744Z,99.99
2017-03-22T06:15:34.761Z,99.99
2017-03-22T06:16:34.780Z,99.99
2017-03-22T06:17:34.800Z,99.99
2017-03-22T06:18:34.817Z,99.99
2017-03-22T06:19:34.835Z,99.99
2017-03-22T06:20:34.851Z,99.99
2017-03-22T06:22:34.990Z,99.99
2017-03-22T06:23:34.910Z,99.99
2017-03-22T06:24:49.543Z,99.99
2017-03-22T06:25:34.944Z,99.99
2017-03-22T06:26:34.965Z,99.99
2017-03-22T06:27:34.985Z,99.99
2017-03-22T06:28:35.002Z,99.99
2017-03-22T06:29:35.022Z,99.99
2017-03-22T06:30:35.040Z,99.99
2017-03-22T06:31:35.058Z,99.99
2017-03-22T06:32:35.081Z,99.99
2017-03-22T06:33:35.100Z,99.99
2017-03-22T06:34:35.117Z,99.99
2017-03-22T06:35:35.138Z,99.99
2017-03-22T06:36:35.161Z,99.99
2017-03-22T06:37:35.195Z,99.91
2017-03-22T06:38:35.200Z,99.63
2017-03-22T06:39:35.218Z,99.63
2017-03-22T06:40:49.856Z,99.16
2017-03-22T06:41:35.261Z,98.78
2017-03-22T06:42:35.282Z,99.02
2017-03-22T06:43:35.305Z,98.35
2017-03-22T06:44:35.324Z,97.69
2017-03-22T06:45:35.350Z,97.02
2017-03-22T06:46:35.368Z,96.36
2017-03-22T06:47:35.393Z,95.6
2017-03-22T06:48:35.415Z,95.79
2017-03-22T06:49:35.133Z,95.22
2017-03-22T06:50:35.456Z,95.7
2017-03-22T06:51:35.481Z,96.08
2017-03-22T06:53:35.527Z,96.08
2017-03-22T06:54:35.546Z,95.7
2017-03-22T06:55:35.573Z,95.31
2017-03-22T06:56:50.208Z,96.08
2017-03-22T06:57:35.615Z,96.08
2017-03-22T06:58:35.638Z,95.79
2017-03-22T06:59:35.357Z,95.7
2017-03-22T07:00:35.679Z,95.7
2017-03-22T07:01:35.400Z,95.08
2017-03-22T07:02:35.426Z,95.46
2017-03-22T07:03:35.449Z,94.51
2017-03-22T07:04:35.471Z,93.94
2017-03-22T07:05:35.493Z,93.84
2017-03-22T07:06:35.820Z,93.65
2017-03-22T07:07:35.540Z,93.32
2017-03-22T07:08:35.870Z,92.66
2017-03-22T07:09:35.899Z,92.37
2017-03-22T07:10:35.916Z,92.08
2017-03-22T07:11:35.636Z,91.89
2017-03-22T07:12:50.582Z,91.8
2017-03-22T07:13:35.993Z,90.94
2017-03-22T07:14:36.015Z,90.94
2017-03-22T07:15:36.041Z,90.94
2017-03-22T07:16:36.063Z,90.37
2017-03-22T07:17:35.788Z,89.66
2017-03-22T07:18:36.115Z,88.61
2017-03-22T07:19:36.140Z,89.18
2017-03-22T07:20:36.166Z,88.8
2017-03-22T07:21:36.190Z,88.37
2017-03-22T07:22:36.219Z,87.32
2017-03-22T07:26:36.319Z,81.41
2017-03-22T07:27:50.965Z,79.51
2017-03-22T07:28:36.375Z,79.32
2017-03-22T07:29:36.402Z,79.46
2017-03-22T07:30:36.439Z,78.69
2017-03-22T07:31:36.456Z,77.49
2017-03-22T07:32:36.484Z,76.06
2017-03-22T07:33:36.509Z,74.54
2017-03-22T07:34:36.536Z,74.35
2017-03-22T07:35:36.564Z,73.77
2017-03-22T07:36:36.594Z,73.49
2017-03-22T07:37:36.621Z,72.92
2017-03-22T07:38:36.651Z,71.96
2017-03-22T07:41:36.733Z,71.2
2017-03-22T07:42:36.764Z,70.76
2017-03-22T07:43:36.798Z,70.44
2017-03-22T07:44:36.824Z,69.71
2017-03-22T07:45:36.852Z,67.99
2017-03-22T07:46:36.875Z,68.28
2017-03-22T07:47:36.909Z,68.38
2017-03-22T07:48:36.936Z,68.47
2017-03-22T07:49:36.963Z,69.04
2017-03-22T07:50:36.987Z,68.66
2017-03-22T07:51:37.014Z,67.71
2017-03-22T07:52:37.045Z,67.71
2017-03-22T07:53:37.078Z,66.85
2017-03-22T07:54:37.110Z,68.95
2017-03-22T07:55:37.127Z,67.61
2017-03-22T07:56:37.157Z,68.03
2017-03-22T07:57:37.185Z,66.6
2017-03-22T07:58:37.215Z,66.41
2017-03-22T07:59:51.856Z,64.97
2017-03-22T08:00:37.267Z,64.21
2017-03-22T08:01:37.292Z,64.75
2017-03-22T08:03:37.352Z,64.28
2017-03-22T08:04:37.377Z,63.99
2017-03-22T08:05:37.408Z,64.85
2017-03-22T08:06:37.430Z,64.21
2017-03-22T08:07:37.462Z,64.21
2017-03-22T08:08:37.498Z,63.67
2017-03-22T08:09:37.215Z,63.39
2017-03-22T08:10:37.550Z,63.2
2017-03-22T08:12:37.606Z,61.47
2017-03-22T08:13:37.637Z,60.64
2017-03-22T08:14:37.362Z,60.33
2017-03-22T08:15:52.304Z,61.57
2017-03-22T08:16:37.726Z,61.89
2017-03-22T08:17:37.746Z,62.18
2017-03-22T08:18:37.771Z,59.41
2017-03-22T08:19:37.797Z,57.43
2017-03-22T08:20:37.826Z,58.76
2017-03-22T08:21:37.857Z,56.21
2017-03-22T08:22:37.889Z,57.14
2017-03-22T08:23:37.914Z,56.95
2017-03-22T08:24:37.943Z,56.21
2017-03-22T08:25:37.969Z,55.74
2017-03-22T08:26:37.997Z,54.88
2017-03-22T08:28:38.054Z,55.83
2017-03-22T08:29:38.080Z,55.64
2017-03-22T08:30:38.112Z,55.45
2017-03-22T08:31:52.755Z,54.97
2017-03-22T08:32:38.167Z,54.68
2017-03-22T08:33:38.194Z,54.68
2017-03-22T08:34:38.224Z,55.45
2017-03-22T08:35:38.250Z,55.96
2017-03-22T08:36:38.279Z,55
2017-03-22T08:37:38.317Z,54.43
2017-03-22T08:38:38.336Z,54.78
2017-03-22T08:39:38.363Z,55.07
2017-03-22T08:40:38.392Z,54.68
2017-03-22T08:41:38.421Z,55.54
2017-03-22T08:42:38.450Z,55.54
2017-03-22T08:43:38.484Z,56.02
2017-03-22T08:44:38.510Z,55.64
2017-03-22T08:45:38.535Z,55.61
2017-03-22T08:46:38.562Z,55.8
2017-03-22T08:47:53.208Z,56.09
2017-03-22T08:48:38.617Z,56.09
2017-03-22T08:49:38.646Z,57.68
2017-03-22T08:50:38.369Z,60.64
2017-03-22T08:51:38.704Z,59.31
2017-03-22T08:52:38.730Z,57.68
2017-03-22T08:53:38.754Z,58.04
2017-03-22T08:54:38.785Z,59.19
2017-03-22T08:55:38.819Z,61.44
2017-03-22T08:56:38.837Z,62.02
2017-03-22T08:57:38.864Z,62.11
2017-03-22T08:58:38.892Z,61.92
2017-03-22T08:59:38.918Z,61.07
2017-03-22T09:00:38.992Z,59.16
2017-03-22T09:01:38.968Z,59.85
2017-03-22T09:02:53.615Z,59.22
2017-03-22T09:03:39.024Z,58.76
2017-03-22T09:04:39.051Z,58.76
2017-03-22T09:05:39.073Z,58.89
2017-03-22T09:06:39.250Z,58.89
2017-03-22T09:07:39.126Z,55.76
2017-03-22T09:08:39.152Z,53.75
2017-03-22T09:09:39.180Z,52.7
2017-03-22T09:10:39.210Z,53.4
2017-03-22T09:11:39.232Z,52.54
2017-03-22T09:12:39.261Z,51.01
2017-03-22T09:14:39.319Z,50.98
2017-03-22T09:15:39.343Z,49.29
2017-03-22T09:16:39.368Z,48.33
2017-03-22T09:17:39.394Z,47.37
2017-03-22T09:18:39.117Z,48.02
2017-03-22T09:19:39.447Z,49.52
2017-03-22T09:20:39.475Z,49.23
2017-03-22T09:21:39.500Z,49.64
2017-03-22T09:22:39.527Z,49.64
2017-03-22T09:23:39.554Z,51.07
2017-03-22T09:24:39.586Z,51.07
2017-03-22T09:25:39.608Z,50.98
2017-03-22T09:26:39.634Z,49.93
2017-03-22T09:27:39.663Z,49.35
2017-03-22T09:28:39.692Z,50.41
2017-03-22T09:29:39.741Z,50.15
2017-03-22T09:31:39.771Z,48.13
2017-03-22T09:32:39.796Z,48.33
2017-03-22T09:33:39.822Z,47.92
2017-03-22T09:34:54.467Z,48.9
2017-03-22T09:35:39.877Z,49.09
2017-03-22T09:36:39.903Z,49.35
2017-03-22T09:37:39.929Z,49.55
2017-03-22T09:38:39.956Z,49.38
2017-03-22T09:39:39.682Z,49.76
2017-03-22T09:40:40.012Z,49.48
2017-03-22T09:41:40.040Z,48.83
2017-03-22T09:42:40.065Z,47.68
2017-03-22T09:43:40.093Z,47.42
2017-03-22T09:44:40.120Z,48.47
2017-03-22T09:45:40.146Z,48.18
2017-03-22T09:49:40.257Z,42.24
2017-03-22T09:50:54.902Z,41.96
2017-03-22T09:51:40.312Z,41.74
2017-03-22T09:52:40.037Z,42.7
2017-03-22T09:53:40.366Z,44.23
2017-03-22T09:54:40.395Z,42.7
2017-03-22T09:55:40.427Z,42.97
2017-03-22T09:56:40.448Z,42.97
2017-03-22T09:57:40.488Z,42.87
2017-03-22T09:58:40.502Z,44.59
2017-03-22T10:00:40.557Z,43.8
2017-03-22T10:01:40.590Z,46.3
2017-03-22T10:02:40.624Z,46.75
2017-03-22T10:04:40.666Z,45.79
2017-03-22T10:05:40.692Z,46.37
2017-03-22T10:06:55.337Z,47.03
2017-03-22T10:07:40.748Z,46.87
2017-03-22T10:08:40.774Z,47.56
2017-03-22T10:09:40.800Z,46.8
2017-03-22T10:10:40.523Z,48.71
2017-03-22T10:11:40.864Z,48.52
2017-03-22T10:12:40.886Z,47.3
2017-03-22T10:13:40.907Z,47.49
2017-03-22T10:14:40.940Z,47.37
2017-03-22T10:15:40.960Z,48.13
2017-03-22T10:17:41.042Z,44.98
2017-03-22T10:18:41.040Z,48.52
2017-03-22T10:19:41.101Z,50.41
2017-03-22T10:20:41.095Z,48.13
2017-03-22T10:21:41.122Z,47.27
2017-03-22T10:22:55.766Z,48.3
2017-03-22T10:23:41.174Z,47.63
2017-03-22T10:24:41.201Z,47.73
2017-03-22T10:25:41.229Z,49.55
2017-03-22T10:26:41.454Z,49.55
2017-03-22T10:27:41.282Z,49.45
2017-03-22T10:28:41.307Z,47.92
2017-03-22T10:29:41.030Z,48.88
2017-03-22T10:30:41.058Z,48.88
2017-03-22T10:31:41.085Z,48.49
2017-03-22T10:32:41.413Z,45.05
2017-03-22T10:33:41.137Z,44.55
2017-03-22T10:34:41.164Z,44.36
2017-03-22T10:36:41.521Z,46.15
2017-03-22T10:37:56.164Z,47.39
2017-03-22T10:38:41.270Z,48.16
2017-03-22T10:39:41.599Z,48.44
2017-03-22T10:40:41.322Z,49.3
2017-03-22T10:41:41.650Z,49.88
2017-03-22T10:42:41.675Z,49.52
2017-03-22T10:43:41.703Z,48.66
2017-03-22T10:44:41.426Z,48.28
2017-03-22T10:45:41.451Z,50.29
2017-03-22T10:46:41.476Z,48.85
2017-03-22T10:47:41.509Z,50.38
2017-03-22T10:48:41.831Z,51.05
2017-03-22T10:49:41.553Z,50.86
2017-03-22T10:51:41.605Z,50.95
2017-03-22T10:52:41.933Z,50.29
2017-03-22T10:53:41.656Z,49.52
2017-03-22T10:54:41.985Z,49.9
2017-03-22T10:55:42.009Z,50.95
2017-03-22T10:56:41.731Z,50.38
2017-03-22T10:57:42.060Z,51.05
2017-03-22T10:58:42.086Z,51.6
2017-03-22T10:59:42.112Z,49.88
2017-03-22T11:00:42.135Z,51.12
2017-03-22T11:01:42.162Z,49.33
2017-03-22T11:02:41.881Z,49.88
2017-03-22T11:03:42.211Z,49.43
2017-03-22T11:06:42.285Z,49.57
2017-03-22T11:07:42.313Z,51.95
2017-03-22T11:08:42.334Z,51.21
2017-03-22T11:09:56.977Z,49.88
2017-03-22T11:10:42.386Z,49.66
2017-03-22T11:11:42.410Z,50.04
2017-03-22T11:12:42.434Z,52.46
2017-03-22T11:13:42.459Z,51.31
2017-03-22T11:14:42.487Z,51.31
2017-03-22T11:15:42.510Z,50.38
2017-03-22T11:16:42.534Z,50.09
2017-03-22T11:17:42.559Z,48.66
2017-03-22T11:18:42.584Z,47.97
2017-03-22T11:19:42.611Z,50.93
2017-03-22T11:20:42.633Z,51.91
2017-03-22T11:21:42.656Z,51.24
2017-03-22T11:22:42.682Z,53.16
2017-03-22T11:24:42.732Z,51.05
2017-03-22T11:25:57.377Z,52.39
2017-03-22T11:26:42.782Z,52.61
2017-03-22T11:27:42.804Z,49.07
2017-03-22T11:28:42.830Z,48.39
2017-03-22T11:29:42.854Z,47.44
2017-03-22T11:30:42.878Z,50
2017-03-22T11:31:42.902Z,48.85
2017-03-22T11:32:42.926Z,48.47
2017-03-22T11:33:42.951Z,46.3
2017-03-22T11:34:42.976Z,45.98
2017-03-22T11:35:43.004Z,44.84
2017-03-22T11:36:43.030Z,44.55
2017-03-22T11:39:43.098Z,44.53
2017-03-22T11:40:43.124Z,47.3
2017-03-22T11:41:57.764Z,46.46
2017-03-22T11:42:43.173Z,46.66
2017-03-22T11:43:43.197Z,47.42
2017-03-22T11:44:43.421Z,46.75
2017-03-22T11:45:43.245Z,48.38
2017-03-22T11:46:43.268Z,48.28
2017-03-22T11:47:43.292Z,46.94
2017-03-22T11:49:43.347Z,45.1
2017-03-22T11:50:43.374Z,45.2
2017-03-22T11:51:43.393Z,46.44
2017-03-22T11:52:43.414Z,45.41
2017-03-22T11:53:43.439Z,43.95
2017-03-22T11:54:43.464Z,42.9
2017-03-22T11:55:43.489Z,43.29
2017-03-22T11:56:43.511Z,43.57
2017-03-22T11:57:58.153Z,42.16
2017-03-22T11:58:43.562Z,42.07
2017-03-22T11:59:43.585Z,42.64
2017-03-22T12:00:43.608Z,42.25
2017-03-22T12:01:43.634Z,41.97
2017-03-22T12:02:43.666Z,39.2
2017-03-22T12:03:43.730Z,38.43
2017-03-22T12:04:43.705Z,38.34
2017-03-22T12:05:43.731Z,38.34
2017-03-22T12:06:43.756Z,39.18
2017-03-22T12:07:43.778Z,39.37
2017-03-22T12:11:43.875Z,41.28
2017-03-22T12:12:58.517Z,42.14
2017-03-22T12:13:43.621Z,41.78
2017-03-22T12:14:43.949Z,41.97
2017-03-22T12:15:43.973Z,43.02
2017-03-22T12:16:43.997Z,42.16
2017-03-22T12:17:44.025Z,43.02
2017-03-22T12:18:44.047Z,42.83
2017-03-22T12:19:44.073Z,42.44
2017-03-22T12:20:44.095Z,41.97
2017-03-22T12:21:44.118Z,41.2
2017-03-22T12:22:44.141Z,41.97
2017-03-22T12:23:44.171Z,41.49
2017-03-22T12:24:44.192Z,41.68
2017-03-22T12:25:44.264Z,41.39
2017-03-22T12:26:44.237Z,41.78
2017-03-22T12:27:44.265Z,41.49
2017-03-22T12:28:44.292Z,41.97
2017-03-22T12:29:44.310Z,41.99
2017-03-22T12:30:44.337Z,41.32
2017-03-22T12:31:44.411Z,41.89
2017-03-22T12:32:44.383Z,43.02
2017-03-22T12:33:44.413Z,43.79
2017-03-22T12:34:44.129Z,45.6
2017-03-22T12:35:44.457Z,45.12
2017-03-22T12:36:44.177Z,44.09
2017-03-22T12:37:44.202Z,42.76
2017-03-22T12:38:44.530Z,43.3
2017-03-22T12:41:44.602Z,45.89
2017-03-22T12:42:44.322Z,46.75
2017-03-22T12:43:44.654Z,47.42
2017-03-22T12:44:59.291Z,47.8
2017-03-22T12:45:44.402Z,47.89
2017-03-22T12:46:44.723Z,46.84
2017-03-22T12:47:44.443Z,45.91
2017-03-22T12:48:45.374Z,46.46
2017-03-22T12:49:44.797Z,46.94
2017-03-22T12:50:44.822Z,46.84
2017-03-22T12:51:44.843Z,47.23
2017-03-22T12:52:44.869Z,47.99
2017-03-22T12:54:44.916Z,46.37
2017-03-22T12:55:44.939Z,47.52
2017-03-22T12:56:44.664Z,45.03
2017-03-22T12:58:45.017Z,42.25
2017-03-22T12:59:44.733Z,41.2
2017-03-22T13:00:59.679Z,40.44
2017-03-22T13:01:44.783Z,41.3
2017-03-22T13:02:44.806Z,43.21
2017-03-22T13:03:45.884Z,45.7
2017-03-22T13:04:45.156Z,44.76
2017-03-22T13:05:45.183Z,44.19
2017-03-22T13:06:45.206Z,43.23
2017-03-22T13:07:45.230Z,44
2017-03-22T13:08:45.257Z,44.86
2017-03-22T13:09:45.278Z,44.19
2017-03-22T13:10:45.303Z,44.86
2017-03-22T13:11:45.337Z,44.57
2017-03-22T13:13:45.684Z,42.35
2017-03-22T13:14:45.096Z,41.3
2017-03-22T13:15:45.120Z,43.12
2017-03-22T13:17:00.065Z,44.07
2017-03-22T13:17:45.473Z,44.07
2017-03-22T13:18:45.194Z,45.6
2017-03-22T13:19:45.219Z,44.17
2017-03-22T13:20:45.244Z,45.79
2017-03-22T13:21:45.570Z,45.15
2017-03-22T13:22:45.290Z,42.83
2017-03-22T13:23:45.619Z,43.59
2017-03-22T13:24:45.642Z,42.83
2017-03-22T13:25:45.364Z,43.69
2017-03-22T13:27:45.410Z,47.61
2017-03-22T13:28:45.737Z,48.09
2017-03-22T13:29:45.459Z,46.96
2017-03-22T13:30:45.483Z,44.95
2017-03-22T13:31:45.811Z,43.4
2017-03-22T13:33:00.452Z,42.83
2017-03-22T13:33:45.860Z,43.48
2017-03-22T13:34:45.884Z,43.95
2017-03-22T13:35:45.909Z,45.2
2017-03-22T13:36:45.932Z,46.63
2017-03-22T13:37:45.956Z,47.42
2017-03-22T13:38:45.979Z,46.66
2017-03-22T13:39:46.004Z,45.7
2017-03-22T13:40:46.031Z,44.36
2017-03-22T13:41:46.052Z,44.55
2017-03-22T13:42:46.076Z,45.58
2017-03-22T13:43:46.100Z,46.66
2017-03-22T13:45:46.148Z,46.66
2017-03-22T13:46:46.172Z,46.34
2017-03-22T13:48:00.812Z,47.2
2017-03-22T13:48:46.219Z,47.97